Time;durP1;ratioP1;P1;durP2;ratioP2;P2;SDS_P1;SDS_P2;PMS_P1;PMS_P2;Temp;Humidity;BMP_temperature;BMP_pressure;BME280_temperature;BME280_humidity;BME280_pressure;Samples;Min_cycle;Max_cycle;Signal;HPM_P1;HPM_P2
2021/01/21 00:00:12;;;;;;;234.93;117.93;;;-2.40;99.90;;;;;;4917923;28;20976;-75
2021/01/21 00:02:34;;;;;;;206.30;100.73;;;;;;;;;;4915406;28;21018;-76
2021/01/21 00:04:56;;;;;;;218.90;105.80;;;;;;;;;;4916382;28;20616;-76
2021/01/21 00:07:18;;;;;;;200.93;94.60;;;;;;;;;;4915959;28;20970;-76
2021/01/21 00:09:41;;;;;;;189.07;85.73;;;-2.70;99.90;;;;;;4917078;28;20701;-76
2021/01/21 00:12:04;;;;;;;182.13;84.73;;;;;;;;;;4915910;28;21042;-77
2021/01/21 00:14:26;;;;;;;126.13;59.67;;;;;;;;;;4916848;28;20609;-76
2021/01/21 00:16:49;;;;;;;118.33;60.13;;;;;;;;;;4915112;28;20650;-75
2021/01/21 00:19:11;;;;;;;160.53;74.57;;;;;;;;;;4948664;27;20739;-77
2021/01/21 00:21:33;;;;;;;169.83;77.90;;;;;;;;;;4917343;28;20670;-75
2021/01/21 00:23:58;;;;;;;169.87;79.37;;;-2.40;99.90;;;;;;4915461;28;20753;-76
2021/01/21 00:26:21;;;;;;;148.67;71.07;;;-2.50;99.90;;;;;;4914214;28;21000;-76
2021/01/21 00:28:43;;;;;;;134.73;65.20;;;;;;;;;;4913180;28;20710;-75
2021/01/21 00:31:05;;;;;;;131.87;62.13;;;;;;;;;;4913229;28;21219;-77
2021/01/21 00:33:27;;;;;;;147.93;69.97;;;;;;;;;;4915208;28;20616;-76
2021/01/21 00:35:50;;;;;;;142.30;66.77;;;;;;;;;;4931553;28;20616;-76
2021/01/21 00:38:12;;;;;;;131.93;65.50;;;;;;;;;;4898971;28;20629;-77
2021/01/21 00:40:34;;;;;;;140.57;66.87;;;;;;;;;;4916661;28;20652;-76
2021/01/21 00:42:57;;;;;;;139.77;69.10;;;-2.70;99.90;;;;;;4915205;28;20693;-76
2021/01/21 00:45:20;;;;;;;147.67;71.40;;;;;;;;;;4916028;28;20617;-76
2021/01/21 00:47:42;;;;;;;148.57;69.97;;;;;;;;;;4914321;28;20608;-75
2021/01/21 00:50:06;;;;;;;164.93;79.37;;;-2.80;99.90;;;;;;4913658;28;20652;-76
2021/01/21 00:52:28;;;;;;;175.03;80.73;;;;;;;;;;4907674;28;20620;-76
2021/01/21 00:54:50;;;;;;;145.37;70.60;;;;;;;;;;4915163;28;20617;-76
2021/01/21 00:57:13;;;;;;;129.37;64.10;;;;;;;;;;4913989;28;20660;-76
2021/01/21 00:59:36;;;;;;;132.57;63.67;;;-3.00;99.90;;;;;;4896972;28;20719;-76
2021/01/21 01:01:58;;;;;;;143.73;70.77;;;;;;;;;;4902494;28;20628;-76
2021/01/21 01:04:21;;;;;;;182.70;87.40;;;;;;;;;;4889922;28;20622;-76
2021/01/21 01:06:43;;;;;;;175.93;89.93;;;-3.10;99.90;;;;;;4914248;28;20654;-76
2021/01/21 01:09:05;;;;;;;193.73;95.83;;;;;;;;;;4896069;28;20650;-76
2021/01/21 01:11:27;;;;;;;196.83;99.00;;;;;;;;;;4913590;28;20613;-76
2021/01/21 01:13:50;;;;;;;200.03;101.63;;;;;;;;;;4897666;28;21035;-76
2021/01/21 01:16:13;;;;;;;201.80;98.03;;;-3.40;98.90;;;;;;4914064;28;20616;-75
2021/01/21 01:18:46;;;;;;;209.17;103.40;;;-4.00;99.90;;;;;;4913691;28;20637;-76
2021/01/21 01:21:08;;;;;;;223.57;103.00;;;;;;;;;;4913522;28;21213;-75
2021/01/21 01:23:31;;;;;;;223.10;105.37;;;;;;;;;;4916148;28;20636;-76
2021/01/21 01:25:54;;;;;;;224.67;104.67;;;;;;;;;;4914449;28;20642;-75
2021/01/21 01:28:17;;;;;;;212.33;102.43;;;-3.30;99.90;;;;;;4915144;28;20662;-76
2021/01/21 01:30:40;;;;;;;212.17;98.23;;;;;;;;;;4913631;28;21082;-76
2021/01/21 01:33:02;;;;;;;221.53;107.60;;;-3.40;99.90;;;;;;4913633;28;20658;-76
2021/01/21 01:35:25;;;;;;;197.00;97.40;;;;;;;;;;4939814;27;20628;-77
2021/01/21 01:37:50;;;;;;;153.57;76.53;;;;;;;;;;4913556;28;20625;-76
2021/01/21 01:40:16;;;;;;;185.70;90.97;;;;;;;;;;4896532;28;20636;-76
2021/01/21 01:42:44;;;;;;;214.47;99.20;;;;;;;;;;4896920;28;20639;-75
2021/01/21 01:45:09;;;;;;;203.60;99.40;;;-3.10;99.90;;;;;;4947426;27;20618;-75
2021/01/21 01:47:33;;;;;;;216.00;104.57;;;;;;;;;;4913848;28;20613;-76
2021/01/21 01:49:56;;;;;;;211.03;102.13;;;-3.00;99.90;;;;;;4913288;28;21220;-76
2021/01/21 01:52:19;;;;;;;221.63;103.37;;;;;;;;;;4912704;28;21275;-75
2021/01/21 01:55:01;;;;;;;209.20;99.97;;;;;;;;;;4914580;28;20625;-76
2021/01/21 01:57:33;;;;;;;228.00;103.80;;;;;;;;;;4907211;28;20670;-76
2021/01/21 02:00:04;;;;;;;205.10;101.27;;;-3.20;99.90;;;;;;4947015;27;21062;-75
2021/01/21 02:02:35;;;;;;;190.60;95.20;;;;;;;;;;4909838;28;20666;-76
2021/01/21 02:05:01;;;;;;;190.30;93.77;;;-3.10;99.90;;;;;;4905624;28;20718;-75
2021/01/21 02:07:28;;;;;;;190.20;90.60;;;;;;;;;;4905381;28;20628;-76
2021/01/21 02:10:01;;;;;;;174.30;85.90;;;-3.00;99.90;;;;;;4913139;28;20733;-75
2021/01/21 02:12:35;;;;;;;191.47;90.63;;;-2.90;99.90;;;;;;4912979;28;21177;-76
2021/01/21 02:15:06;;;;;;;176.67;90.00;;;-2.90;99.90;;;;;;4914021;28;20615;-76
2021/01/21 02:17:49;;;;;;;180.73;88.20;;;-2.90;99.90;;;;;;4908004;28;21169;-76
2021/01/21 02:20:42;;;;;;;167.67;86.77;;;-3.00;99.90;;;;;;4913914;28;20597;-76
2021/01/21 02:23:50;;;;;;;167.67;85.17;;;-2.90;99.90;;;;;;4913053;28;20693;-76
2021/01/21 02:26:19;;;;;;;173.10;83.67;;;-2.90;99.90;;;;;;4910724;28;20624;-75
2021/01/21 02:29:08;;;;;;;164.03;78.50;;;-2.20;99.90;;;;;;4909581;28;20622;-76
2021/01/21 02:31:45;;;;;;;163.03;86.93;;;-2.90;99.90;;;;;;4911670;28;20823;-76
2021/01/21 02:34:12;;;;;;;161.03;83.13;;;-2.90;99.90;;;;;;4913165;28;20632;-76
2021/01/21 02:36:37;;;;;;;163.97;83.77;;;-2.90;99.90;;;;;;4911569;28;20613;-76
2021/01/21 02:39:10;;;;;;;162.97;84.00;;;-2.80;99.90;;;;;;4912190;28;21188;-75
2021/01/21 02:41:33;;;;;;;171.97;81.07;;;;;;;;;;4905363;28;20625;-76
2021/01/21 02:43:56;;;;;;;173.47;85.53;;;;;;;;;;4913290;28;20612;-76
2021/01/21 02:46:20;;;;;;;173.77;83.23;;;-4.50;99.90;;;;;;4912838;28;20629;-76
2021/01/21 02:48:43;;;;;;;167.27;84.07;;;;;;;;;;4912292;28;20667;-75
2021/01/21 02:51:15;;;;;;;165.53;82.47;;;-3.10;99.90;;;;;;4887524;28;21480;-76
2021/01/21 02:53:41;;;;;;;167.13;85.13;;;-2.50;99.90;;;;;;4910603;28;20700;-75
2021/01/21 02:56:09;;;;;;;164.67;82.23;;;-3.10;99.90;;;;;;4906344;28;20705;-75
2021/01/21 02:58:45;;;;;;;170.47;85.60;;;-1.50;99.90;;;;;;4932573;27;21171;-76
2021/01/21 03:01:13;;;;;;;162.90;79.27;;;-3.10;99.90;;;;;;4909907;28;20761;-75
2021/01/21 03:03:38;;;;;;;175.67;89.10;;;-3.10;99.90;;;;;;4896098;28;20638;-75
2021/01/21 03:06:06;;;;;;;171.93;84.60;;;-3.20;99.90;;;;;;4911134;28;20690;-76
2021/01/21 03:08:33;;;;;;;170.90;85.27;;;-3.20;99.90;;;;;;4933963;28;20612;-76
2021/01/21 03:11:09;;;;;;;165.30;77.73;;;-3.20;99.90;;;;;;4909067;28;20710;-75
2021/01/21 03:13:32;;;;;;;189.77;84.63;;;;;;;;;;4905498;28;20624;-75
2021/01/21 03:15:54;;;;;;;168.47;83.60;;;;;;;;;;4914110;28;20608;-75
2021/01/21 03:18:18;;;;;;;175.80;87.80;;;;;;;;;;4912013;28;20694;-75
2021/01/21 03:20:40;;;;;;;185.30;86.00;;;;;;;;;;4894552;28;20695;-75
2021/01/21 03:23:05;;;;;;;174.33;85.67;;;;;;;;;;4911602;28;20711;-75
2021/01/21 03:25:34;;;;;;;173.80;83.73;;;-3.40;99.90;;;;;;4912454;28;20621;-75
2021/01/21 03:28:04;;;;;;;182.17;84.90;;;;;;;;;;4912576;28;21095;-75
2021/01/21 03:30:29;;;;;;;180.53;89.20;;;;;;;;;;4911727;28;20722;-75
2021/01/21 03:32:51;;;;;;;176.70;86.00;;;;;;;;;;4912325;28;20670;-75
2021/01/21 03:35:14;;;;;;;171.77;82.50;;;-3.60;99.90;;;;;;4895807;28;20618;-76
2021/01/21 03:37:37;;;;;;;174.87;87.93;;;;;;;;;;4912212;28;20625;-75
2021/01/21 03:40:00;;;;;;;173.67;87.03;;;;;;;;;;4913574;28;20604;-75
2021/01/21 03:42:29;;;;;;;169.37;83.47;;;-3.70;99.90;;;;;;4912107;28;20628;-76
2021/01/21 03:45:23;;;;;;;176.47;86.83;;;;;;;;;;4892889;28;20630;-75
2021/01/21 03:47:47;;;;;;;168.53;83.00;;;-3.60;99.90;;;;;;4946559;28;20611;-76
2021/01/21 03:50:13;;;;;;;178.70;86.90;;;-3.50;99.90;;;;;;4911851;28;20661;-75
2021/01/21 03:52:37;;;;;;;175.00;84.00;;;;;;;;;;4894077;28;20617;-75
2021/01/21 03:55:05;;;;;;;184.50;83.13;;;;;;;;;;4911713;28;20621;-75
2021/01/21 03:57:28;;;;;;;170.13;82.87;;;;;;;;;;4902301;28;20706;-75
2021/01/21 04:00:08;;;;;;;170.53;84.53;;;-4.00;96.70;;;;;;4909203;28;20628;-75
2021/01/21 04:02:37;;;;;;;183.30;86.97;;;;;;;;;;4904905;28;20601;-75
2021/01/21 04:05:12;;;;;;;174.87;83.53;;;-3.90;99.90;;;;;;4911451;28;21168;-74
2021/01/21 04:07:35;;;;;;;168.57;78.60;;;;;;;;;;4892915;28;20929;-75
2021/01/21 04:09:57;;;;;;;166.40;81.43;;;;;;;;;;4897484;28;20992;-75
2021/01/21 04:12:38;;;;;;;172.00;82.30;;;;;;;;;;4899881;28;20985;-75
2021/01/21 04:15:01;;;;;;;161.67;84.37;;;;;;;;;;4894013;28;20737;-75
2021/01/21 04:17:24;;;;;;;186.50;91.40;;;-4.00;99.90;;;;;;4914835;28;20682;-75
2021/01/21 04:19:46;;;;;;;181.97;88.07;;;;;;;;;;4915740;28;20652;-76
2021/01/21 04:22:09;;;;;;;161.23;82.73;;;;;;;;;;4914950;28;20685;-75
2021/01/21 04:24:32;;;;;;;188.77;94.37;;;;;;;;;;4914855;28;20621;-75
2021/01/21 04:27:02;;;;;;;181.27;90.50;;;;;;;;;;4913059;28;20632;-75
2021/01/21 04:29:36;;;;;;;160.80;82.87;;;;;;;;;;4904527;28;20652;-76
2021/01/21 04:31:59;;;;;;;172.17;85.20;;;;;;;;;;4897999;28;20621;-75
2021/01/21 04:34:25;;;;;;;165.30;79.77;;;-4.10;99.90;;;;;;4914827;28;20659;-75
2021/01/21 04:36:48;;;;;;;158.43;79.00;;;;;;;;;;4913704;28;20674;-75
2021/01/21 04:39:29;;;;;;;166.13;83.67;;;;;;;;;;4915341;28;20693;-75
2021/01/21 04:41:55;;;;;;;167.63;79.83;;;;;;;;;;4915439;28;20612;-75
2021/01/21 04:44:21;;;;;;;171.27;80.87;;;;;;;;;;4915458;28;20658;-75
2021/01/21 04:46:49;;;;;;;153.07;74.87;;;-4.40;95.70;;;;;;4913407;28;20632;-75
2021/01/21 04:49:13;;;;;;;157.97;77.23;;;-4.40;94.20;;;;;;4897301;28;20663;-76
2021/01/21 04:51:39;;;;;;;155.07;74.20;;;-4.40;99.90;;;;;;4899395;28;20612;-77
2021/01/21 04:54:09;;;;;;;146.03;71.00;;;;;;;;;;4916416;28;20584;-75
2021/01/21 04:57:00;;;;;;;159.73;74.10;;;-4.70;97.60;;;;;;4894221;28;20751;-77
2021/01/21 04:59:50;;;;;;;149.47;73.20;;;-4.60;92.20;;;;;;4909219;28;21189;-74
2021/01/21 05:02:22;;;;;;;149.50;72.53;;;;;;;;;;4931310;27;20672;-75
2021/01/21 05:04:59;;;;;;;132.03;65.20;;;;;;;;;;4900108;28;20693;-75
2021/01/21 05:07:31;;;;;;;146.87;70.70;;;-4.80;93.30;;;;;;4913784;28;20633;-75
2021/01/21 05:09:54;;;;;;;147.00;66.97;;;;;;;;;;4916327;28;21402;-75
2021/01/21 05:12:17;;;;;;;146.00;68.27;;;;;;;;;;4914608;28;20617;-76
2021/01/21 05:14:58;;;;;;;144.67;66.70;;;;;;;;;;4914678;28;20650;-75
2021/01/21 05:17:39;;;;;;;157.70;74.33;;;;;;;;;;4909212;28;21133;-75
2021/01/21 05:20:34;;;;;;;159.33;75.97;;;-4.70;94.70;;;;;;4896219;28;20625;-75
2021/01/21 05:23:16;;;;;;;155.57;73.83;;;-4.60;99.90;;;;;;4914338;28;20693;-75
2021/01/21 05:26:13;;;;;;;148.23;72.70;;;;;;;;;;4899381;28;21009;-75
2021/01/21 05:29:08;;;;;;;149.97;69.93;;;;;;;;;;4891577;28;20671;-75
2021/01/21 05:31:42;;;;;;;139.07;66.67;;;-4.80;95.90;;;;;;4914677;28;20682;-75
2021/01/21 05:34:07;;;;;;;133.87;64.07;;;-4.70;96.30;;;;;;4913458;28;20949;-74
2021/01/21 05:36:59;;;;;;;134.97;63.53;;;;;;;;;;4891219;28;21318;-75
2021/01/21 05:39:37;;;;;;;129.63;63.43;;;-4.70;96.70;;;;;;4888641;28;20633;-75
2021/01/21 05:42:19;;;;;;;122.77;61.70;;;;;;;;;;4914702;28;20978;-74
2021/01/21 05:45:04;;;;;;;137.80;62.80;;;-4.70;96.30;;;;;;4911091;28;20642;-74
2021/01/21 05:47:41;;;;;;;129.60;62.33;;;-4.80;95.90;;;;;;4893043;28;20620;-75
2021/01/21 05:50:04;;;;;;;132.37;64.47;;;-4.70;99.90;;;;;;4913398;28;20649;-74
2021/01/21 05:52:27;;;;;;;129.37;61.83;;;-4.70;99.90;;;;;;4913107;28;20642;-74
2021/01/21 05:54:52;;;;;;;135.37;64.50;;;-4.80;95.00;;;;;;4897373;28;20620;-74
2021/01/21 05:57:38;;;;;;;116.03;57.27;;;-4.90;95.30;;;;;;4905923;28;20633;-74
2021/01/21 06:00:01;;;;;;;129.63;62.83;;;-4.90;95.10;;;;;;4913161;28;21228;-74
2021/01/21 06:02:45;;;;;;;127.57;62.07;;;-4.90;95.20;;;;;;4908110;28;21005;-75
2021/01/21 06:05:27;;;;;;;137.20;63.43;;;;;;;;;;4914778;28;20609;-75
2021/01/21 06:07:50;;;;;;;121.10;59.43;;;;;;;;;;4914425;28;20671;-74
2021/01/21 06:10:14;;;;;;;134.13;64.13;;;-4.90;94.80;;;;;;4914035;28;20693;-75
2021/01/21 06:12:37;;;;;;;148.57;67.13;;;;;;;;;;4913208;28;20621;-74
2021/01/21 06:15:01;;;;;;;141.70;66.63;;;-5.00;93.10;;;;;;4914506;28;20605;-75
2021/01/21 06:17:23;;;;;;;141.60;67.90;;;;;;;;;;4913438;28;20988;-75
2021/01/21 06:20:05;;;;;;;137.93;66.40;;;-4.90;93.20;;;;;;4914468;28;20623;-74
2021/01/21 06:22:29;;;;;;;144.10;65.33;;;-5.00;93.80;;;;;;4905092;28;21274;-74
2021/01/21 06:24:59;;;;;;;130.70;60.97;;;-4.90;94.50;;;;;;4912554;28;20707;-73
2021/01/21 06:27:24;;;;;;;118.30;55.90;;;-4.90;99.90;;;;;;4913510;28;20624;-74
2021/01/21 06:29:47;;;;;;;122.40;56.50;;;-4.80;96.20;;;;;;4946676;27;20598;-74
2021/01/21 06:32:12;;;;;;;115.13;56.43;;;-4.80;96.50;;;;;;4912122;28;20621;-74
2021/01/21 06:34:39;;;;;;;117.70;58.73;;;-5.00;99.90;;;;;;4913572;28;20608;-74
2021/01/21 06:37:07;;;;;;;105.60;51.87;;;-4.70;97.10;;;;;;4914594;28;20604;-75
2021/01/21 06:39:39;;;;;;;110.23;54.87;;;-4.60;99.90;;;;;;4905513;28;20674;-75
2021/01/21 06:42:03;;;;;;;109.70;57.03;;;-4.60;97.40;;;;;;4933036;27;20634;-74
2021/01/21 06:44:27;;;;;;;117.43;59.20;;;-4.60;97.40;;;;;;4914398;28;20621;-74
2021/01/21 06:46:50;;;;;;;109.40;56.70;;;-4.60;97.00;;;;;;4895510;28;20622;-75
2021/01/21 06:49:14;;;;;;;125.30;60.27;;;-4.60;96.70;;;;;;4913796;28;20678;-74
2021/01/21 06:51:36;;;;;;;127.90;61.87;;;;;;;;;;4912611;28;20742;-76
2021/01/21 06:53:59;;;;;;;131.80;64.87;;;-4.50;99.90;;;;;;4913743;28;20684;-74
2021/01/21 06:56:31;;;;;;;127.70;62.77;;;-4.50;99.90;;;;;;4912462;28;20604;-75
2021/01/21 06:58:54;;;;;;;131.30;63.93;;;;;;;;;;4913311;28;20582;-75
2021/01/21 07:01:44;;;;;;;140.93;71.67;;;-4.40;99.90;;;;;;4911949;28;20968;-75
2021/01/21 07:04:21;;;;;;;134.67;72.23;;;-4.30;95.40;;;;;;4908435;28;20620;-74
2021/01/21 07:07:00;;;;;;;123.40;63.70;;;-4.20;96.10;;;;;;4908155;28;20991;-77
2021/01/21 07:09:23;;;;;;;140.30;67.53;;;-4.20;96.40;;;;;;4914231;28;20585;-74
2021/01/21 07:11:47;;;;;;;130.10;66.73;;;-4.10;99.80;;;;;;4914561;28;20698;-74
2021/01/21 07:14:11;;;;;;;134.80;69.00;;;-4.00;95.80;;;;;;4912574;28;21262;-75
2021/01/21 07:16:33;;;;;;;118.67;60.50;;;;;;;;;;4913629;28;20617;-74
2021/01/21 07:18:56;;;;;;;112.17;59.30;;;-3.90;94.50;;;;;;4912355;28;20652;-74
2021/01/21 07:21:25;;;;;;;116.03;59.87;;;-3.80;94.10;;;;;;4895925;28;21056;-75
2021/01/21 07:23:50;;;;;;;124.57;62.07;;;-3.70;93.70;;;;;;4914563;28;20597;-74
2021/01/21 07:26:19;;;;;;;111.77;58.37;;;-3.60;93.50;;;;;;4914704;28;20581;-75
2021/01/21 07:28:55;;;;;;;106.67;56.27;;;-3.40;92.80;;;;;;4911156;28;20635;-76
2021/01/21 07:31:17;;;;;;;128.63;62.37;;;-3.00;99.90;;;;;;4913322;28;20725;-74
2021/01/21 07:33:40;;;;;;;121.03;59.77;;;;;;;;;;4914523;28;21286;-74
2021/01/21 07:36:30;;;;;;;133.13;64.37;;;-2.90;99.90;;;;;;4914121;28;20596;-74
2021/01/21 07:38:52;;;;;;;178.20;84.40;;;;;;;;;;4895341;28;20675;-74
2021/01/21 07:41:44;;;;;;;155.53;76.73;;;-2.20;98.70;;;;;;4914126;28;20605;-74
2021/01/21 07:44:06;;;;;;;191.77;88.23;;;-1.90;97.70;;;;;;4904886;28;20670;-74
2021/01/21 07:46:28;;;;;;;180.10;88.00;;;-1.20;86.00;;;;;;4894669;28;21200;-75
2021/01/21 07:48:51;;;;;;;176.50;88.23;;;;;;;;;;4904950;28;20601;-75
2021/01/21 07:51:14;;;;;;;191.87;91.07;;;-0.10;87.30;;;;;;4914099;28;20632;-74
2021/01/21 07:53:37;;;;;;;194.07;99.23;;;0.50;69.20;;;;;;4916641;28;20617;-74
2021/01/21 07:56:04;;;;;;;162.10;81.40;;;1.10;46.50;;;;;;4917890;28;20584;-75
2021/01/21 07:58:30;;;;;;;179.43;87.10;;;2.50;6.40;;;;;;4918057;28;20608;-75
2021/01/21 08:00:53;;;;;;;182.73;93.67;;;2.20;1.00;;;;;;4915670;28;20596;-75
2021/01/21 08:03:16;;;;;;;226.90;104.23;;;;;;;;;;4917625;28;20649;-74
2021/01/21 08:05:38;;;;;;;170.60;92.67;;;;;;;;;;4917763;28;20592;-75
2021/01/21 08:08:03;;;;;;;186.67;96.10;;;;;;;;;;4898470;28;20734;-75
2021/01/21 08:10:28;;;;;;;166.83;84.60;;;3.60;99.90;;;;;;4899129;28;20785;-76
2021/01/21 08:12:51;;;;;;;173.37;86.50;;;3.10;1.00;;;;;;4911453;28;20705;-75
2021/01/21 08:15:18;;;;;;;161.93;83.97;;;3.10;99.90;;;;;;4916668;28;20608;-75
2021/01/21 08:17:40;;;;;;;135.87;72.97;;;;;;;;;;4914909;28;21078;-76
2021/01/21 08:20:03;;;;;;;133.00;71.63;;;3.70;1.00;;;;;;4916820;28;20184;-76
2021/01/21 08:22:25;;;;;;;123.80;69.87;;;3.30;1.00;;;;;;4916372;28;20758;-77
2021/01/21 08:24:58;;;;;;;122.37;69.87;;;3.60;1.00;;;;;;4916814;28;20180;-76
2021/01/21 08:27:43;;;;;;;123.37;74.77;;;3.30;1.00;;;;;;4915538;28;20195;-78
2021/01/21 08:30:17;;;;;;;137.37;79.27;;;3.20;1.00;;;;;;4914794;28;20665;-77
2021/01/21 08:32:41;;;;;;;134.00;77.07;;;3.10;10.50;;;;;;4908871;28;20188;-77
2021/01/21 08:35:04;;;;;;;134.77;74.07;;;2.60;99.90;;;;;;4913920;28;20203;-77
2021/01/21 08:37:27;;;;;;;130.53;74.13;;;2.90;1.00;;;;;;4914600;28;20184;-77
2021/01/21 08:39:49;;;;;;;124.90;70.77;;;2.90;1.00;;;;;;4898346;28;20183;-76
2021/01/21 08:42:11;;;;;;;134.80;72.50;;;2.20;99.90;;;;;;4916815;28;20198;-78
2021/01/21 08:44:34;;;;;;;127.33;72.37;;;2.90;79.70;;;;;;4915282;28;20234;-77
2021/01/21 08:46:57;;;;;;;130.10;74.00;;;2.50;1.00;;;;;;4916185;28;20241;-77
2021/01/21 08:49:19;;;;;;;122.03;70.60;;;2.90;67.10;;;;;;4913822;28;20210;-76
2021/01/21 08:51:42;;;;;;;114.90;67.63;;;3.10;99.90;;;;;;4915196;28;20319;-77
2021/01/21 08:54:15;;;;;;;113.60;68.53;;;3.50;1.00;;;;;;4915051;28;20204;-76
2021/01/21 08:56:37;;;;;;;104.97;63.37;;;2.30;1.00;;;;;;4909231;28;20184;-77
2021/01/21 08:58:59;;;;;;;91.20;54.87;;;;;;;;;;4897221;28;20197;-78
2021/01/21 09:01:22;;;;;;;70.37;44.90;;;3.10;1.00;;;;;;4911521;28;20204;-77
2021/01/21 09:03:48;;;;;;;94.80;57.43;;;3.00;1.00;;;;;;4915898;28;20241;-76
2021/01/21 09:06:10;;;;;;;88.90;56.00;;;3.50;99.90;;;;;;4912296;28;20691;-78
2021/01/21 09:08:33;;;;;;;102.43;60.43;;;3.50;99.90;;;;;;4914834;28;20253;-77
2021/01/21 09:10:58;;;;;;;104.27;61.60;;;3.50;99.90;;;;;;4914212;28;20261;-76
2021/01/21 09:13:21;;;;;;;112.43;67.70;;;;;;;;;;4881854;28;20193;-76
2021/01/21 09:16:05;;;;;;;114.77;68.20;;;3.80;99.90;;;;;;4914803;28;20195;-76
2021/01/21 09:18:45;;;;;;;123.93;71.10;;;3.90;1.00;;;;;;4905236;28;20277;-76
2021/01/21 09:21:17;;;;;;;107.43;64.93;;;4.10;1.00;;;;;;4922744;28;20191;-77
2021/01/21 09:23:41;;;;;;;101.37;64.70;;;4.20;99.90;;;;;;4922279;28;20266;-76
2021/01/21 09:26:13;;;;;;;100.60;62.03;;;5.00;1.00;;;;;;4917645;28;20245;-76
2021/01/21 09:28:52;;;;;;;72.77;46.63;;;4.20;1.00;;;;;;4915040;28;20176;-76
2021/01/21 09:31:16;;;;;;;56.87;37.57;;;4.70;1.00;;;;;;4912555;28;20219;-75
2021/01/21 09:33:39;;;;;;;58.37;38.13;;;4.80;1.00;;;;;;4906987;28;20234;-76
2021/01/21 09:36:02;;;;;;;56.73;36.13;;;5.30;1.00;;;;;;4895552;28;20247;-76
2021/01/21 09:38:24;;;;;;;49.63;33.90;;;5.60;99.90;;;;;;4913164;28;20200;-76
2021/01/21 09:40:46;;;;;;;51.30;35.37;;;6.40;1.00;;;;;;4879431;28;20247;-76
2021/01/21 09:43:10;;;;;;;46.60;33.67;;;6.70;1.00;;;;;;4912566;28;20582;-76
2021/01/21 09:45:32;;;;;;;39.97;27.77;;;7.00;99.90;;;;;;4914192;28;20233;-77
2021/01/21 09:47:55;;;;;;;35.83;25.80;;;8.00;84.80;;;;;;4915286;28;20229;-76
2021/01/21 09:50:18;;;;;;;28.77;21.33;;;8.70;1.00;;;;;;4912214;28;20184;-75
2021/01/21 09:52:41;;;;;;;30.00;22.63;;;9.50;99.90;;;;;;4912645;28;20280;-76
2021/01/21 09:55:05;;;;;;;27.07;20.67;;;10.40;54.20;;;;;;4915799;28;20241;-75
2021/01/21 09:57:28;;;;;;;22.77;18.07;;;11.30;1.00;;;;;;4914604;28;20305;-77
2021/01/21 09:59:50;;;;;;;23.50;18.97;;;;;;;;;;4915524;28;20711;-75
2021/01/21 10:02:12;;;;;;;22.20;17.83;;;;;;;;;;4909080;28;20208;-75
2021/01/21 10:04:36;;;;;;;20.40;16.17;;;14.10;54.90;;;;;;4913359;28;20222;-75
2021/01/21 10:06:59;;;;;;;19.43;15.27;;;;;;;;;;4913828;28;20234;-76
2021/01/21 10:09:22;;;;;;;16.63;13.87;;;16.90;1.00;;;;;;4915231;28;20190;-75
2021/01/21 10:11:44;;;;;;;14.43;12.73;;;18.60;1.00;;;;;;4912510;28;20698;-76
2021/01/21 10:14:07;;;;;;;11.63;10.40;;;19.80;1.00;;;;;;4895888;28;20246;-76
2021/01/21 10:16:30;;;;;;;9.67;8.70;;;19.90;1.00;;;;;;4915345;28;20646;-75
2021/01/21 10:18:52;;;;;;;8.20;7.33;;;;;;;;;;4915417;28;20673;-76
2021/01/21 10:21:14;;;;;;;7.63;6.90;;;18.30;1.00;;;;;;4915328;28;20192;-76
2021/01/21 10:23:37;;;;;;;5.70;5.13;;;17.10;1.00;;;;;;4893056;28;20221;-75
2021/01/21 10:26:00;;;;;;;6.50;5.93;;;15.80;1.00;;;;;;4896129;28;20193;-75
2021/01/21 10:28:22;;;;;;;6.93;6.30;;;;;;;;;;4895025;28;20205;-76
2021/01/21 10:30:44;;;;;;;7.40;6.73;;;;;;;;;;4895424;28;20542;-75
2021/01/21 10:33:06;;;;;;;8.97;8.10;;;13.20;1.00;;;;;;4893073;28;20208;-75
2021/01/21 10:35:28;;;;;;;11.00;9.93;;;13.10;1.00;;;;;;4896006;28;20230;-75
2021/01/21 10:37:51;;;;;;;12.37;11.13;;;;;;;;;;4894724;28;20222;-75
2021/01/21 10:40:14;;;;;;;15.83;14.27;;;11.60;1.00;;;;;;4895715;28;20201;-75
2021/01/21 10:42:37;;;;;;;11.20;10.03;;;11.00;1.00;;;;;;4896026;28;20185;-75
2021/01/21 10:44:59;;;;;;;14.87;12.83;;;;;;;;;;4894324;28;20226;-76
2021/01/21 10:47:21;;;;;;;11.30;9.80;;;11.20;1.00;;;;;;4895960;28;20188;-75
2021/01/21 10:49:43;;;;;;;11.80;8.77;;;10.90;1.00;;;;;;4895858;28;20571;-75
2021/01/21 10:52:06;;;;;;;11.83;9.53;;;10.80;1.00;;;;;;4895594;28;20216;-75
2021/01/21 10:54:28;;;;;;;10.60;8.67;;;10.70;1.00;;;;;;4894231;28;20195;-75
2021/01/21 10:56:53;;;;;;;9.33;8.30;;;10.70;1.00;;;;;;4895005;28;20600;-75
2021/01/21 10:59:16;;;;;;;9.73;7.60;;;11.20;1.00;;;;;;4877412;28;20215;-75
2021/01/21 11:01:38;;;;;;;8.97;7.13;;;;;;;;;;4892559;28;20254;-75
2021/01/21 11:04:00;;;;;;;7.00;5.50;;;;;;;;;;4894261;28;20250;-75
2021/01/21 11:06:23;;;;;;;4.50;4.03;;;11.30;1.00;;;;;;4893263;28;20726;-74
2021/01/21 11:08:45;;;;;;;4.70;3.97;;;;;;;;;;4877492;28;20740;-74
2021/01/21 11:11:07;;;;;;;2.87;2.13;;;;;;;;;;4895384;28;20189;-74
2021/01/21 11:13:32;;;;;;;2.40;1.90;;;;;;;;;;4894236;28;20192;-75
2021/01/21 11:15:55;;;;;;;2.43;1.83;;;11.70;1.00;;;;;;4893942;28;20246;-74
2021/01/21 11:18:17;;;;;;;2.20;1.67;;;13.10;1.00;;;;;;4895173;28;20205;-73
2021/01/21 11:20:40;;;;;;;1.20;1.10;;;13.10;1.00;;;;;;4895489;28;20189;-74
2021/01/21 11:23:03;;;;;;;0.97;0.87;;;;;;;;;;4908200;28;20289;-74
2021/01/21 11:25:25;;;;;;;1.63;1.23;;;;;;;;;;4912783;28;20284;-75
2021/01/21 11:27:47;;;;;;;1.63;1.20;;;12.40;1.00;;;;;;4917523;28;20176;-73
2021/01/21 11:30:12;;;;;;;1.90;1.57;;;12.40;1.00;;;;;;4918566;28;20184;-72
2021/01/21 11:32:35;;;;;;;1.47;1.20;;;12.20;1.00;;;;;;4918893;28;20241;-73
2021/01/21 11:34:58;;;;;;;1.53;1.27;;;;;;;;;;4917611;28;20187;-72
2021/01/21 11:37:20;;;;;;;2.83;2.03;;;;;;;;;;4917561;28;20253;-74
2021/01/21 11:39:42;;;;;;;1.27;1.10;;;;;;;;;;4918347;28;20233;-73
2021/01/21 11:42:05;;;;;;;1.43;1.27;;;12.00;1.00;;;;;;4917280;28;20204;-73
2021/01/21 11:44:27;;;;;;;1.77;1.50;;;;;;;;;;4918751;28;20214;-72
2021/01/21 11:46:49;;;;;;;2.33;1.63;;;11.30;4.90;;;;;;4916512;28;20222;-73
2021/01/21 11:49:12;;;;;;;2.33;1.90;;;12.40;1.00;;;;;;4917610;28;20176;-74
2021/01/21 11:51:35;;;;;;;1.53;1.27;;;12.40;1.00;;;;;;4917057;28;20212;-73
2021/01/21 11:53:57;;;;;;;2.33;1.33;;;;;;;;;;4918412;28;20189;-73
2021/01/21 11:56:19;;;;;;;2.37;1.60;;;;;;;;;;4918158;28;20642;-74
2021/01/21 11:58:42;;;;;;;1.67;1.17;;;;;;;;;;4917918;28;20594;-75
2021/01/21 12:01:04;;;;;;;1.63;1.03;;;18.70;1.00;;;;;;4914115;28;20242;-73
2021/01/21 12:03:27;;;;;;;1.37;0.83;;;20.30;1.00;;;;;;4918250;28;20229;-76
2021/01/21 12:05:50;;;;;;;0.83;0.60;;;22.70;1.00;;;;;;4917107;28;20628;-73
2021/01/21 12:08:12;;;;;;;2.13;0.93;;;24.00;1.00;;;;;;4917491;28;20596;-76
2021/01/21 12:10:35;;;;;;;2.60;1.00;;;24.00;1.00;;;;;;4917292;28;20743;-72
2021/01/21 12:12:58;;;;;;;1.90;0.93;;;;;;;;;;4917964;28;20217;-74
2021/01/21 12:15:20;;;;;;;2.37;1.00;;;26.30;1.00;;;;;;4899260;28;20257;-72
2021/01/21 12:17:42;;;;;;;2.93;1.17;;;;;;;;;;4917572;28;20249;-72
2021/01/21 12:20:05;;;;;;;1.97;0.73;;;27.00;99.90;;;;;;4916462;28;20224;-72
2021/01/21 12:22:28;;;;;;;1.87;0.63;;;27.80;99.90;;;;;;4916397;28;20258;-72
2021/01/21 12:24:50;;;;;;;2.20;0.80;;;27.50;1.00;;;;;;4914946;28;20630;-72
2021/01/21 12:27:13;;;;;;;3.73;1.53;;;27.90;1.00;;;;;;4916456;28;20187;-72
2021/01/21 12:29:35;;;;;;;2.50;0.97;;;27.70;99.90;;;;;;4916112;28;20184;-71
2021/01/21 12:31:58;;;;;;;3.30;1.23;;;;;;;;;;4913895;28;20690;-71
2021/01/21 12:34:20;;;;;;;2.57;0.97;;;;;;;;;;4914703;28;20262;-72
2021/01/21 12:36:42;;;;;;;1.90;0.77;;;;;;;;;;4914856;28;20197;-71
2021/01/21 12:39:06;;;;;;;2.77;1.00;;;26.90;1.00;;;;;;4915566;28;20184;-72
2021/01/21 12:41:29;;;;;;;1.70;0.57;;;26.50;1.00;;;;;;4916347;28;20224;-72
2021/01/21 12:43:51;;;;;;;1.40;0.60;;;25.10;1.00;;;;;;4915586;28;20590;-72
2021/01/21 12:46:13;;;;;;;3.80;1.33;;;25.50;1.00;;;;;;4897645;28;20665;-72
2021/01/21 12:48:35;;;;;;;2.17;0.87;;;;;;;;;;4915394;28;20193;-73
2021/01/21 12:50:57;;;;;;;1.67;0.70;;;25.60;1.00;;;;;;4896212;28;20193;-73
2021/01/21 12:53:19;;;;;;;4.93;1.83;;;;;;;;;;4877782;28;20228;-73
2021/01/21 12:55:42;;;;;;;2.37;0.90;;;25.50;99.90;;;;;;4894756;28;20296;-73
2021/01/21 12:58:05;;;;;;;2.47;0.90;;;25.00;99.90;;;;;;4896579;28;20181;-72
2021/01/21 13:00:27;;;;;;;9.67;3.63;;;;;;;;;;4910790;28;20188;-73
2021/01/21 13:02:49;;;;;;;1.90;0.87;;;;;;;;;;4916049;28;20184;-72